createdAt,value
2019-04-21T00:00:35.577Z,2.30
2019-04-21T00:03:11.477Z,2.60
2019-04-21T00:06:00.171Z,2.43
2019-04-21T00:08:33.560Z,2.43
2019-04-21T00:11:02.752Z,2.30
2019-04-21T00:13:25.332Z,2.30
2019-04-21T00:15:48.811Z,2.23
2019-04-21T00:18:40.826Z,2.53
2019-04-21T00:21:14.886Z,2.07
2019-04-21T00:23:59.057Z,2.17
2019-04-21T00:26:29.079Z,2.30
2019-04-21T00:29:04.027Z,2.43
2019-04-21T00:31:28.329Z,2.40
2019-04-21T00:33:46.318Z,2.20
2019-04-21T00:36:21.972Z,2.50
2019-04-21T00:39:17.100Z,2.17
2019-04-21T00:41:38.082Z,2.57
2019-04-21T00:44:00.724Z,2.37
2019-04-21T00:46:37.245Z,2.33
2019-04-21T00:49:05.954Z,2.17
2019-04-21T00:51:54.129Z,2.50
2019-04-21T00:54:29.575Z,2.30
2019-04-21T00:56:57.912Z,2.40
2019-04-21T00:59:25.936Z,2.40
2019-04-21T01:01:53.877Z,2.60
2019-04-21T01:04:33.862Z,2.73
2019-04-21T01:07:01.630Z,2.50
2019-04-21T01:09:29.076Z,2.30
2019-04-21T01:12:03.820Z,2.30
2019-04-21T01:14:45.309Z,2.27
2019-04-21T01:17:15.749Z,2.60
2019-04-21T01:19:38.583Z,2.53
2019-04-21T01:21:48.453Z,2.50
2019-04-21T01:24:25.941Z,2.90
2019-04-21T01:27:02.276Z,2.93
2019-04-21T01:29:42.812Z,3.17
2019-04-21T01:32:19.625Z,3.20
2019-04-21T01:34:45.620Z,3.00
2019-04-21T01:37:10.123Z,3.20
2019-04-21T01:39:57.179Z,3.00
2019-04-21T01:42:19.115Z,3.03
2019-04-21T01:44:53.603Z,3.20
2019-04-21T01:47:17.357Z,2.90
2019-04-21T01:49:43.142Z,3.57
2019-04-21T01:52:37.272Z,3.10
2019-04-21T01:55:12.731Z,3.37
2019-04-21T01:57:57.588Z,3.10
2019-04-21T02:00:40.819Z,2.87
2019-04-21T02:03:37.386Z,3.43
2019-04-21T02:06:14.900Z,3.57
2019-04-21T02:08:34.589Z,3.47
2019-04-21T02:11:11.245Z,3.47
2019-04-21T02:13:46.846Z,3.13
2019-04-21T02:16:12.457Z,3.17
2019-04-21T02:18:39.070Z,3.30
2019-04-21T02:21:00.109Z,3.23
2019-04-21T02:24:05.710Z,3.37
2019-04-21T02:26:16.446Z,3.50
2019-04-21T02:28:56.512Z,3.50
2019-04-21T02:33:58.596Z,3.60
2019-04-21T02:39:13.253Z,3.53
2019-04-21T02:44:08.291Z,3.80
2019-04-21T02:46:38.170Z,4.40
2019-04-21T02:49:11.100Z,4.73
2019-04-21T02:56:53.448Z,4.70
2019-04-21T03:02:29.045Z,4.87
2019-04-21T03:05:01.781Z,4.93
2019-04-21T03:07:31.904Z,4.83
2019-04-21T03:10:12.144Z,5.53
2019-04-21T03:12:40.435Z,5.97
2019-04-21T03:15:18.164Z,6.33
2019-04-21T03:20:17.198Z,6.87
2019-04-21T03:22:46.303Z,6.97
2019-04-21T03:25:26.708Z,6.90
2019-04-21T03:30:29.307Z,6.30
2019-04-21T03:36:05.511Z,7.30
2019-04-21T03:37:52.908Z,6.63
2019-04-21T03:40:22.404Z,7.17
2019-04-21T03:42:59.823Z,6.77
2019-04-21T03:45:32.647Z,7.40
2019-04-21T03:48:05.226Z,7.20
2019-04-21T03:50:33.770Z,7.30
2019-04-21T03:53:03.453Z,7.17
2019-04-21T04:09:09.243Z,7.40
2019-04-21T04:11:38.141Z,6.90
2019-04-21T04:14:12.947Z,7.70
2019-04-21T04:16:50.326Z,7.47
2019-04-21T04:19:05.866Z,7.83
2019-04-21T04:21:47.722Z,6.77
2019-04-21T04:24:13.693Z,6.93
2019-04-21T04:34:21.845Z,6.70
2019-04-21T04:40:03.589Z,7.20
2019-04-21T04:45:15.057Z,7.20
2019-04-21T04:47:54.677Z,6.60
2019-04-21T04:50:25.702Z,6.20
2019-04-21T04:55:06.934Z,6.60
2019-04-21T04:57:55.351Z,6.17
2019-04-21T05:00:19.789Z,5.80
2019-04-21T05:02:40.251Z,6.00
2019-04-21T05:05:19.504Z,6.10
2019-04-21T05:07:49.970Z,5.80
2019-04-21T05:10:25.261Z,5.70
2019-04-21T05:12:43.800Z,6.30
2019-04-21T05:15:16.487Z,6.00
2019-04-21T05:20:15.785Z,5.40
2019-04-21T05:22:50.354Z,5.70
2019-04-21T05:25:13.436Z,5.83
2019-04-21T05:27:45.173Z,5.73
2019-04-21T05:30:28.564Z,5.13
2019-04-21T05:33:19.014Z,5.30
2019-04-21T05:36:04.730Z,6.03
2019-04-21T05:38:53.100Z,5.20
2019-04-21T05:41:24.575Z,5.77
2019-04-21T05:44:01.493Z,5.40
2019-04-21T05:46:35.638Z,5.03
2019-04-21T05:49:02.897Z,5.60
2019-04-21T05:51:37.221Z,5.00
2019-04-21T05:54:23.067Z,4.87
2019-04-21T05:56:42.367Z,5.10
2019-04-21T05:59:15.234Z,5.40
2019-04-21T06:01:48.603Z,4.83
2019-04-21T06:04:26.510Z,5.17
2019-04-21T06:06:56.880Z,4.93
2019-04-21T06:09:32.081Z,4.90
2019-04-21T06:11:55.613Z,4.20
2019-04-21T06:14:29.399Z,4.40
2019-04-21T06:17:01.683Z,4.47
2019-04-21T06:19:36.961Z,4.23
2019-04-21T06:21:57.150Z,4.90
2019-04-21T06:24:40.724Z,4.23
2019-04-21T06:27:22.687Z,4.57
2019-04-21T06:29:28.625Z,4.83
2019-04-21T06:32:37.439Z,3.93
2019-04-21T06:34:49.539Z,4.20
2019-04-21T06:37:40.212Z,4.37
2019-04-21T06:40:11.819Z,4.80
2019-04-21T06:42:21.236Z,4.03
2019-04-21T06:44:57.500Z,4.50
2019-04-21T06:47:39.176Z,4.03
2019-04-21T06:50:00.475Z,4.03
2019-04-21T06:52:47.700Z,4.93
2019-04-21T06:57:35.492Z,6.80
2019-04-21T07:00:04.344Z,6.47
2019-04-21T07:02:42.264Z,5.70
2019-04-21T07:05:07.912Z,6.47
2019-04-21T07:07:52.121Z,5.73
2019-04-21T07:10:12.257Z,5.50
2019-04-21T07:12:43.078Z,5.50
2019-04-21T07:15:11.334Z,5.67
2019-04-21T07:17:46.936Z,5.63
2019-04-21T07:20:18.907Z,5.20
2019-04-21T07:22:48.050Z,5.10
2019-04-21T07:25:22.585Z,4.70
2019-04-21T07:27:52.413Z,5.13
2019-04-21T07:30:25.590Z,4.87
2019-04-21T07:33:09.257Z,4.80
2019-04-21T07:35:24.905Z,4.80
2019-04-21T07:37:57.644Z,4.67
2019-04-21T07:40:24.879Z,4.93
2019-04-21T07:42:51.439Z,4.30
2019-04-21T07:45:26.291Z,4.23
2019-04-21T07:48:11.313Z,4.17
2019-04-21T07:50:55.418Z,4.17
2019-04-21T07:53:36.766Z,5.60
2019-04-21T07:55:38.029Z,4.60
2019-04-21T07:58:26.527Z,4.47
2019-04-21T08:03:33.839Z,4.80
2019-04-21T08:06:02.334Z,5.07
2019-04-21T08:08:36.757Z,5.30
2019-04-21T08:11:07.734Z,4.63
2019-04-21T08:13:39.189Z,4.47
2019-04-21T08:16:12.782Z,4.80
2019-04-21T08:18:42.430Z,4.83
2019-04-21T08:21:17.801Z,4.93
2019-04-21T08:23:43.101Z,4.60
2019-04-21T08:26:33.707Z,4.80
2019-04-21T08:28:45.748Z,4.20
2019-04-21T08:31:30.786Z,4.97
2019-04-21T08:33:54.195Z,4.73
2019-04-21T08:36:24.564Z,4.53
2019-04-21T08:38:53.659Z,4.43
2019-04-21T08:41:20.212Z,4.37
2019-04-21T08:43:55.023Z,4.60
2019-04-21T08:46:23.878Z,6.40
2019-04-21T08:48:57.950Z,3.90
2019-04-21T08:54:05.508Z,4.67
2019-04-21T08:56:52.656Z,4.60
2019-04-21T08:59:47.165Z,4.50
2019-04-21T09:02:29.499Z,4.70
2019-04-21T09:04:52.686Z,4.10
2019-04-21T09:09:57.843Z,4.27
2019-04-21T09:12:30.991Z,4.40
2019-04-21T09:15:01.238Z,4.17
2019-04-21T09:17:28.522Z,3.70
2019-04-21T09:22:35.844Z,4.50
2019-04-21T09:25:06.669Z,4.10
2019-04-21T09:27:36.735Z,4.23
2019-04-21T09:29:55.968Z,3.70
2019-04-21T09:32:26.789Z,4.20
2019-04-21T09:34:53.520Z,3.87
2019-04-21T09:37:32.909Z,4.10
2019-04-21T09:39:57.410Z,3.83
2019-04-21T09:42:33.194Z,3.80
2019-04-21T09:45:02.347Z,4.10
2019-04-21T09:47:38.043Z,4.23
2019-04-21T09:50:03.041Z,3.90
2019-04-21T09:52:40.968Z,3.57
2019-04-21T09:55:10.255Z,3.90
2019-04-21T09:57:41.286Z,3.47
2019-04-21T10:00:13.159Z,3.77
2019-04-21T10:02:48.979Z,4.30
2019-04-21T10:05:23.084Z,4.30
2019-04-21T10:07:55.236Z,3.90
2019-04-21T10:10:25.255Z,3.83
2019-04-21T10:12:56.211Z,3.55
2019-04-21T10:15:27.858Z,3.17
2019-04-21T10:18:00.560Z,3.73
2019-04-21T10:20:30.895Z,3.73
2019-04-21T10:23:00.705Z,3.60
2019-04-21T10:25:30.690Z,3.50
2019-04-21T10:28:01.276Z,3.77
2019-04-21T10:30:31.195Z,3.50
2019-04-21T10:33:00.881Z,3.33
2019-04-21T10:35:31.045Z,3.67
2019-04-21T10:38:12.889Z,3.20
2019-04-21T10:40:35.242Z,3.97
2019-04-21T10:43:04.017Z,3.20
2019-04-21T10:45:34.802Z,3.30
2019-04-21T10:48:05.157Z,3.90
2019-04-21T10:50:34.946Z,3.40
2019-04-21T10:53:09.112Z,3.50
2019-04-21T10:55:54.313Z,3.93
2019-04-21T10:58:16.446Z,3.30
2019-04-21T11:00:48.319Z,3.60
2019-04-21T11:03:35.344Z,3.97
2019-04-21T11:06:06.559Z,4.47
2019-04-21T11:08:41.591Z,4.50
2019-04-21T11:11:08.241Z,4.53
2019-04-21T11:13:38.884Z,3.80
2019-04-21T11:16:08.940Z,4.07
2019-04-21T11:18:39.887Z,3.70
2019-04-21T11:21:10.815Z,4.53
2019-04-21T11:23:41.047Z,3.50
2019-04-21T11:26:12.005Z,3.50
2019-04-21T11:28:43.007Z,3.87
2019-04-21T11:31:13.307Z,3.20
2019-04-21T11:33:43.167Z,3.83
2019-04-21T11:36:13.364Z,3.50
2019-04-21T11:39:15.730Z,3.50
2019-04-21T11:41:34.039Z,3.50
2019-04-21T11:44:05.013Z,3.57
2019-04-21T11:46:36.186Z,3.20
2019-04-21T11:49:06.377Z,2.87
2019-04-21T11:51:37.299Z,3.20
2019-04-21T11:54:08.660Z,3.03
2019-04-21T11:56:38.939Z,2.73
2019-04-21T11:59:09.861Z,2.93
2019-04-21T12:01:39.782Z,2.90
2019-04-21T12:04:11.632Z,2.80
2019-04-21T12:06:46.532Z,2.90
2019-04-21T12:09:14.590Z,2.47
2019-04-21T12:11:45.378Z,2.70
2019-04-21T12:14:16.335Z,3.17
2019-04-21T12:16:47.025Z,2.60
2019-04-21T12:19:18.966Z,2.53
2019-04-21T12:22:02.858Z,2.73
2019-04-21T12:24:22.037Z,3.10
2019-04-21T12:26:53.880Z,2.80
2019-04-21T12:29:24.835Z,2.60
2019-04-21T12:32:16.194Z,2.67
2019-04-21T12:34:50.503Z,2.50
2019-04-21T12:37:19.717Z,2.27
2019-04-21T12:39:50.582Z,2.60
2019-04-21T12:42:20.979Z,2.50
2019-04-21T12:44:51.745Z,2.23
2019-04-21T12:47:22.070Z,2.40
2019-04-21T12:49:52.381Z,2.70
2019-04-21T12:52:24.576Z,2.30
2019-04-21T12:54:55.568Z,2.30
2019-04-21T12:57:25.551Z,2.67
2019-04-21T12:59:55.338Z,2.40
2019-04-21T13:02:25.411Z,2.27
2019-04-21T13:04:55.876Z,2.23
2019-04-21T13:07:25.911Z,2.40
2019-04-21T13:09:55.705Z,2.10
2019-04-21T13:12:25.421Z,2.13
2019-04-21T13:14:57.473Z,2.20
2019-04-21T13:17:27.781Z,2.43
2019-04-21T13:19:58.979Z,2.30
2019-04-21T13:22:29.990Z,2.30
2019-04-21T13:25:00.070Z,2.40
2019-04-21T13:27:31.828Z,2.17
2019-04-21T13:30:02.236Z,2.00
2019-04-21T13:32:33.189Z,1.80
2019-04-21T13:35:03.338Z,2.30
2019-04-21T13:37:33.411Z,2.50
2019-04-21T13:40:53.020Z,2.37
2019-04-21T13:43:10.684Z,1.90
2019-04-21T13:45:41.565Z,2.17
2019-04-21T13:48:12.769Z,2.60
2019-04-21T13:50:49.089Z,1.97
2019-04-21T13:53:18.885Z,2.27
2019-04-21T13:55:48.686Z,1.80
2019-04-21T13:58:18.373Z,2.00
2019-04-21T14:00:50.379Z,2.40
2019-04-21T14:03:21.774Z,2.10
2019-04-21T14:05:50.767Z,1.90
2019-04-21T14:08:21.118Z,2.00
2019-04-21T14:10:51.517Z,1.83
2019-04-21T14:13:22.526Z,1.90
2019-04-21T14:15:53.763Z,2.00
2019-04-21T14:18:24.709Z,1.80
2019-04-21T14:20:55.426Z,1.77
2019-04-21T14:23:32.450Z,1.80
2019-04-21T14:25:57.507Z,1.77
2019-04-21T14:28:28.258Z,2.13
2019-04-21T14:30:58.640Z,1.67
2019-04-21T14:33:29.781Z,1.67
2019-04-21T14:36:00.978Z,1.60
2019-04-21T14:38:32.129Z,1.80
2019-04-21T14:41:02.263Z,1.87
2019-04-21T14:43:32.123Z,1.80
2019-04-21T14:46:11.067Z,1.60
2019-04-21T14:48:59.252Z,1.67
2019-04-21T14:51:54.814Z,1.70
2019-04-21T14:54:44.575Z,1.77
2019-04-21T14:57:15.555Z,1.60
2019-04-21T14:59:45.306Z,1.80
2019-04-21T15:02:16.056Z,1.70
2019-04-21T15:04:45.997Z,1.63
2019-04-21T15:07:17.034Z,1.70
2019-04-21T15:09:53.702Z,1.80
2019-04-21T15:12:20.079Z,1.83
2019-04-21T15:14:49.991Z,1.60
2019-04-21T15:17:22.452Z,1.47
2019-04-21T15:19:59.769Z,1.53
2019-04-21T15:22:22.373Z,1.53
2019-04-21T15:24:52.174Z,1.40
2019-04-21T15:27:23.046Z,1.53
2019-04-21T15:29:53.077Z,1.80
2019-04-21T15:32:22.761Z,1.83
2019-04-21T15:34:52.444Z,1.70
2019-04-21T15:37:22.180Z,1.50
2019-04-21T15:39:53.044Z,1.43
2019-04-21T15:42:24.254Z,1.40
2019-04-21T15:44:56.699Z,1.63
2019-04-21T15:47:27.949Z,1.40
2019-04-21T15:50:04.660Z,1.40
2019-04-21T15:52:30.018Z,1.60
2019-04-21T15:55:06.589Z,1.60
2019-04-21T15:58:10.568Z,1.33
2019-04-21T16:01:00.717Z,1.17
2019-04-21T16:03:31.111Z,1.57
2019-04-21T16:06:01.369Z,1.07
2019-04-21T16:08:31.261Z,1.40
2019-04-21T16:11:04.558Z,1.63
2019-04-21T16:13:33.988Z,1.60
2019-04-21T16:16:06.262Z,1.30
2019-04-21T16:18:38.237Z,1.40
2019-04-21T16:21:08.324Z,1.40
2019-04-21T16:23:38.335Z,1.03
2019-04-21T16:26:08.787Z,1.27
2019-04-21T16:28:39.486Z,1.33
2019-04-21T16:31:10.153Z,1.33
2019-04-21T16:33:41.055Z,1.43
2019-04-21T16:36:13.122Z,1.50
2019-04-21T16:38:42.215Z,1.30
2019-04-21T16:41:12.144Z,1.30
2019-04-21T16:43:43.031Z,1.30
2019-04-21T16:46:13.638Z,1.53
2019-04-21T16:48:44.123Z,1.40
2019-04-21T16:51:15.104Z,1.40
2019-04-21T16:54:23.998Z,1.93
2019-04-21T16:57:19.879Z,1.33
2019-04-21T16:59:56.525Z,1.23
2019-04-21T17:02:26.550Z,1.40
2019-04-21T17:04:56.337Z,1.80
2019-04-21T17:07:26.315Z,1.30
2019-04-21T17:10:15.344Z,1.70
2019-04-21T17:12:45.659Z,1.50
2019-04-21T17:15:32.589Z,1.53
2019-04-21T17:18:05.652Z,1.73
2019-04-21T17:20:34.185Z,1.40
2019-04-21T17:22:51.621Z,1.60
2019-04-21T17:25:24.307Z,1.70
2019-04-21T17:27:53.263Z,1.70
2019-04-21T17:30:24.320Z,1.50
2019-04-21T17:32:55.378Z,1.60
2019-04-21T17:35:25.290Z,1.53
2019-04-21T17:37:56.181Z,1.80
2019-04-21T17:40:26.496Z,1.60
2019-04-21T17:43:02.014Z,1.43
2019-04-21T17:45:28.903Z,1.50
2019-04-21T17:48:03.191Z,1.43
2019-04-21T17:50:59.285Z,1.50
2019-04-21T17:53:44.875Z,1.40
2019-04-21T17:56:31.737Z,1.57
2019-04-21T17:58:58.521Z,1.77
2019-04-21T18:01:35.877Z,1.43
2019-04-21T18:04:10.910Z,1.20
2019-04-21T18:07:05.145Z,1.60
2019-04-21T18:09:51.743Z,1.30
2019-04-21T18:12:10.778Z,1.40
2019-04-21T18:14:28.393Z,1.20
2019-04-21T18:16:58.367Z,1.40
2019-04-21T18:19:32.410Z,1.90
2019-04-21T18:22:35.820Z,1.73
2019-04-21T18:25:06.737Z,2.20
2019-04-21T18:27:34.454Z,2.63
2019-04-21T18:30:08.370Z,3.00
2019-04-21T18:32:41.076Z,3.30
2019-04-21T18:35:29.286Z,2.80
2019-04-21T18:38:26.085Z,5.87
2019-04-21T18:40:52.833Z,4.13
2019-04-21T18:44:10.436Z,4.43
2019-04-21T18:46:40.019Z,4.20
2019-04-21T18:49:04.600Z,5.00
2019-04-21T18:52:02.508Z,4.20
2019-04-21T18:54:47.322Z,4.00
2019-04-21T18:57:07.883Z,3.50
2019-04-21T18:59:36.127Z,3.73
2019-04-21T19:02:06.356Z,4.00
2019-04-21T19:04:35.207Z,3.30
2019-04-21T19:07:18.020Z,3.40
2019-04-21T19:10:10.024Z,3.87
2019-04-21T19:12:31.916Z,3.40
2019-04-21T19:14:55.105Z,3.70
2019-04-21T19:20:07.661Z,3.03
2019-04-21T19:22:32.848Z,3.13
2019-04-21T19:25:04.804Z,3.10
2019-04-21T19:27:31.049Z,2.80
2019-04-21T19:32:34.580Z,2.90
2019-04-21T19:34:54.917Z,3.37
2019-04-21T19:37:25.865Z,2.87
2019-04-21T19:40:05.794Z,2.60
2019-04-21T19:42:35.503Z,2.50
2019-04-21T19:45:12.323Z,2.50
2019-04-21T19:47:48.677Z,2.60
2019-04-21T19:50:19.487Z,2.67
2019-04-21T19:52:39.991Z,2.70
2019-04-21T19:55:02.519Z,2.53
2019-04-21T19:57:32.380Z,2.90
2019-04-21T20:00:05.797Z,2.17
2019-04-21T20:02:34.366Z,2.40
2019-04-21T20:05:10.782Z,2.70
2019-04-21T20:07:49.181Z,2.80
2019-04-21T20:10:27.020Z,2.40
2019-04-21T20:12:56.999Z,2.50
2019-04-21T20:15:36.073Z,2.50
2019-04-21T20:17:58.568Z,2.70
2019-04-21T20:20:17.230Z,2.50
2019-04-21T20:22:51.868Z,2.90
2019-04-21T20:25:23.281Z,2.53
2019-04-21T20:28:05.236Z,2.30
2019-04-21T20:30:49.067Z,2.57
2019-04-21T20:33:42.833Z,2.40
2019-04-21T20:35:59.423Z,2.23
2019-04-21T20:38:19.369Z,2.40
2019-04-21T20:40:45.036Z,2.30
2019-04-21T20:43:30.696Z,2.37
2019-04-21T20:48:25.240Z,2.33
2019-04-21T20:51:01.956Z,2.50
2019-04-21T20:53:32.737Z,2.50
2019-04-21T20:55:59.199Z,2.47
2019-04-21T20:58:34.600Z,2.13
2019-04-21T21:03:42.273Z,2.33
2019-04-21T21:06:08.120Z,2.10
2019-04-21T21:08:45.384Z,2.17
2019-04-21T21:11:08.214Z,2.40
2019-04-21T21:14:07.399Z,2.13
2019-04-21T21:16:46.304Z,2.30
2019-04-21T21:19:17.105Z,2.37
2019-04-21T21:21:38.293Z,2.00
2019-04-21T21:24:12.678Z,2.27
2019-04-21T21:26:43.919Z,2.03
2019-04-21T21:29:18.364Z,2.00
2019-04-21T21:31:50.657Z,2.77
2019-04-21T21:34:21.402Z,2.20
2019-04-21T21:36:51.126Z,2.00
2019-04-21T21:39:15.589Z,2.30
2019-04-21T21:41:40.621Z,1.93
2019-04-21T21:44:09.199Z,2.37
2019-04-21T21:46:48.500Z,2.13
2019-04-21T21:49:23.677Z,2.00
2019-04-21T21:51:52.696Z,2.03
2019-04-21T21:54:09.885Z,2.23
2019-04-21T21:56:40.644Z,2.00
2019-04-21T21:59:16.483Z,2.00
2019-04-21T22:01:47.169Z,2.17
2019-04-21T22:04:20.842Z,2.00
2019-04-21T22:06:50.687Z,2.50
2019-04-21T22:09:16.617Z,1.87
2019-04-21T22:11:49.573Z,2.00
2019-04-21T22:14:25.896Z,2.03
2019-04-21T22:17:07.505Z,2.00
2019-04-21T22:19:48.902Z,2.00
2019-04-21T22:22:11.745Z,1.97
2019-04-21T22:24:39.922Z,1.87
2019-04-21T22:26:54.853Z,1.80
2019-04-21T22:29:27.863Z,1.90
2019-04-21T22:32:04.219Z,1.90
2019-04-21T22:34:32.700Z,2.20
2019-04-21T22:37:16.664Z,1.90
2019-04-21T22:39:51.621Z,2.00
2019-04-21T22:42:11.167Z,1.87
2019-04-21T22:44:32.709Z,2.60
2019-04-21T22:47:11.432Z,2.00
2019-04-21T22:49:34.882Z,1.97
2019-04-21T22:52:11.277Z,2.20
2019-04-21T22:54:40.826Z,2.03
2019-04-21T22:57:12.935Z,1.93
2019-04-21T22:59:38.560Z,2.10
2019-04-21T23:02:15.249Z,2.00
2019-04-21T23:04:43.740Z,1.93
2019-04-21T23:07:15.445Z,2.00
2019-04-21T23:09:43.210Z,2.20
2019-04-21T23:12:22.836Z,2.00
2019-04-21T23:14:53.434Z,2.20
2019-04-21T23:17:33.928Z,1.87
2019-04-21T23:20:09.962Z,2.07
2019-04-21T23:22:48.840Z,2.20
2019-04-21T23:25:08.778Z,2.30
2019-04-21T23:27:42.586Z,2.10
2019-04-21T23:30:19.971Z,2.20
2019-04-21T23:32:36.058Z,2.10
2019-04-21T23:34:56.137Z,2.20
2019-04-21T23:37:27.807Z,1.80
2019-04-21T23:40:04.400Z,2.17
2019-04-21T23:42:34.561Z,2.30
2019-04-21T23:45:02.922Z,2.20
2019-04-21T23:47:42.797Z,2.23
2019-04-21T23:50:19.522Z,2.17
2019-04-21T23:52:35.337Z,2.30
2019-04-21T23:55:05.616Z,2.00
2019-04-21T23:57:40.763Z,2.30
